Wessington, South Dakota
Current Conditions -  °F | °C
As of 1:55 PM on Thursday 23 Oct 2014 (Local Time) from KHON Reporting Station
Clear Clear  
Wind Chill: 70°   Ceiling: Unl
Heat Index: 70°   Visibility: 10mi
Dew Point: 50°   Wind: 12mph
Humidity: 49%   Direction: 190°S
Pressure: 29.93"   Gusts: NA
Location:  44.45°N, 98.7°W
Report Text: KHON 231855Z AUTO 19010KT 10SM CLR 21/10 A2993 RMK AO2 SLP137 T02110100 $
Loading
Personal Weather Stations






























Interactive Weather Map
Tropical Storm Tracking
New forecast layout! Learn more

10-Day Weather Forecast

Advertisements
Track Severe Weather on mobile